Lubbock Preston Smith International Airport

Date: 2024-06-11 06:27:00Z

Type: SPECI

Weather: Thunderstorms

Winds: Winds Calm

Visibility: 10+

Ceiling (AGL FT): Clouds BROKEN at 1200, OVERCAST at 3000, OVERCAST at 9500, BROKEN at 18000

RAW METAR: KLBB 110627Z 00000KT 10SM TS BKN012 OVC030CB 18/17 A3001 RMK AO2 RAB08E24 TSB27 OCNL LTGICCG NE TS NE MOV E P0003 T01830167 $

project-image